CMA CGM Thalassa — 5BNE2 — position and weather

sailwx.info

Track history (hours):
 
Tides and Currents Weather Stations Pressure Air Temp Water Temp Dewpoint Dewpoint Depression Visibility Wind Speed Wind Dir Waves Ship Positions

CMA CGM Thalassa

Last reported at 2015-Feb-15 00:33 UTC. Time now 2015-Mar-04 16:53 UTC.
Position N 36°27' E 014°24'.
Warning: this ship's position is 17 days out of date.

Length 347 m; draft 14.9 m.

Type: Cargo ship. MMSI: 212151000.

Date/timePositionNaut miles runAvg speedWind from/ knotsBaromVisibWave heightAir tempDewpointWater temp
2015-Feb-15 00:33N 36°27' E 014°24'2520.2
2015-Feb-14 23:19N 36°34' E 013°54'92120.5
2015-Feb-13 02:25N 36°01' W 005°08'1921.5
2015-Feb-13 01:33N 35°57' W 005°30'25717.9
2015-Feb-12 11:15N 38°17' W 009°60'1521.4
2015-Feb-12 10:33N 38°32' W 010°04'2120.8
2015-Feb-12 09:32N 38°53' W 010°07'74919.2
2015-Feb-10 18:30N 50°03' W 002°19'2021.5
2015-Feb-10 17:33N 49°57' W 001°49'4522.6
2015-Feb-10 15:33N 49°41' W 000°44'2020.0
2015-Feb-10 14:33N 49°33' W 000°15'1514.6
2015-Feb-10 13:34N 49°28' E 000°06'3 2.9
2015-Feb-10 12:33N 49°27' E 000°10'0 0.0
2015-Feb-10 11:33N 49°27' E 000°10'0 0.0
2015-Feb-10 10:32N 49°27' E 000°10'0 0.0
2015-Feb-10 09:32N 49°27' E 000°10'0 0.0
2015-Feb-10 08:31N 49°27' E 000°10'0 0.0
2015-Feb-10 07:31N 49°27' E 000°10'0 0.0
2015-Feb-10 06:33N 49°27' E 000°10'0 0.0
2015-Feb-10 05:33N 49°27' E 000°10'0 0.0
2015-Feb-10 04:33N 49°27' E 000°10'0 0.0
2015-Feb-10 03:32N 49°27' E 000°10'0 0.0
2015-Feb-10 02:31N 49°27' E 000°10'0 0.0
2015-Feb-10 01:33N 49°27' E 000°10'0 0.0
2015-Feb-10 00:33N 49°27' E 000°10'0 0.0
2015-Feb-09 23:33N 49°27' E 000°10'0 0.0
2015-Feb-09 22:32N 49°27' E 000°10'0 0.0
2015-Feb-09 21:32N 49°27' E 000°10'0 0.0
2015-Feb-09 20:31N 49°27' E 000°10'0 0.0
2015-Feb-09 19:31N 49°27' E 000°10'0 0.0
2015-Feb-09 18:33N 49°27' E 000°10'0 0.0
2015-Feb-09 17:33N 49°27' E 000°10'0 0.0
2015-Feb-09 16:32N 49°27' E 000°10'0 0.0
2015-Feb-09 15:32N 49°27' E 000°10'0 0.0
2015-Feb-09 14:33N 49°27' E 000°10'0 0.0
2015-Feb-09 13:33N 49°27' E 000°10'0 0.3
2015-Feb-09 12:33N 49°27' E 000°10'5 4.9
2015-Feb-09 11:33N 49°30' E 000°03'1110.9
2015-Feb-09 10:33N 49°33' W 000°13'1312.6
2015-Feb-09 09:33N 49°41' W 000°28'4814.3
2015-Feb-09 06:11N 50°26' W 000°54'914.2
2015-Feb-09 05:33N 50°35' W 000°57'1010.3
2015-Feb-09 04:34N 50°44' W 001°04'10 9.8
2015-Feb-09 03:34N 50°47' W 001°19'8 7.8
2015-Feb-09 02:33N 50°54' W 001°25'1 0.6
2015-Feb-09 00:28N 50°54' W 001°27'0 0.0
2015-Feb-08 21:27N 50°54' W 001°27'0 0.0
2015-Feb-08 18:16N 50°54' W 001°27'0 0.0
2015-Feb-08 17:31N 50°54' W 001°27'0 0.0
2015-Feb-08 16:33N 50°54' W 001°27'0 0.0
2015-Feb-08 15:30N 50°54' W 001°27'0 0.0
2015-Feb-08 14:30N 50°54' W 001°27'0 0.0
2015-Feb-08 13:11N 50°54' W 001°27'0 0.0
2015-Feb-08 11:28N 50°54' W 001°27'0 0.0
2015-Feb-08 10:10N 50°54' W 001°27'0 0.0
2015-Feb-08 09:30N 50°54' W 001°27'0 0.0
2015-Feb-08 08:33N 50°54' W 001°27'0 0.0
2015-Feb-08 07:33N 50°54' W 001°27'0 0.0
2015-Feb-08 06:32N 50°54' W 001°27'0 0.0
2015-Feb-08 05:32N 50°54' W 001°27'0 0.2
2015-Feb-08 04:33N 50°54' W 001°26'6 5.6
2015-Feb-08 03:33N 50°51' W 001°20'9 9.5
2015-Feb-08 02:33N 50°45' W 001°07'1110.5
2015-Feb-08 01:33N 50°37' W 000°58'1211.6
2015-Feb-08 00:33N 50°30' W 000°43'1515.3
2015-Feb-07 23:34N 50°29' W 000°19'1413.5
2015-Feb-07 22:31N 50°31' E 000°03'1313.2
2015-Feb-07 21:33N 50°34' E 000°22'1313.2
2015-Feb-07 20:33N 50°39' E 000°42'1313.0
2015-Feb-07 19:33N 50°46' E 000°59'1313.4
2015-Feb-07 18:33N 50°54' E 001°17'1313.5
2015-Feb-07 17:33N 51°04' E 001°31'1313.4
2015-Feb-07 16:33N 51°13' E 001°46'1313.1
2015-Feb-07 15:33N 51°25' E 001°57'1212.4
2015-Feb-07 14:33N 51°21' E 002°16'10 9.7
2015-Feb-07 13:33N 51°23' E 002°31'9 9.0
2015-Feb-07 12:33N 51°24' E 002°45'1515.1
2015-Feb-07 11:33N 51°23' E 003°09'3 3.0
2015-Feb-07 10:31N 51°20' E 003°12'0 0.0
2015-Feb-07 09:31N 51°20' E 003°12'0 0.0
2015-Feb-07 08:31N 51°20' E 003°12'0 0.0
2015-Feb-07 07:33N 51°20' E 003°12'0 0.0
2015-Feb-07 06:30N 51°20' E 003°12'0 0.0
2015-Feb-07 05:29N 51°20' E 003°12'0 0.0
2015-Feb-07 04:32N 51°20' E 003°12'0 0.0
2015-Feb-07 03:31N 51°20' E 003°12'0 0.0
2015-Feb-07 02:31N 51°20' E 003°12'0 0.0
2015-Feb-07 01:31N 51°20' E 003°12'0 0.0
2015-Feb-07 00:33N 51°20' E 003°12'0 0.0
2015-Feb-06 23:33N 51°20' E 003°12'1 0.7
2015-Feb-06 22:34N 51°21' E 003°12'9 9.4
2015-Feb-06 21:33N 51°25' E 002°59'1515.4
2015-Feb-06 20:33N 51°38' E 003°10'2618.4
2015-Feb-06 19:09N 52°03' E 003°23'1119.0
2015-Feb-06 18:33N 52°03' E 003°42'1111.2
2015-Feb-06 17:34N 52°00' E 003°59'4 4.5
2015-Feb-06 16:33N 51°57' E 004°04'0 0.4
2015-Feb-06 15:31N 51°57' E 004°03'0 0.0
2015-Feb-06 14:31N 51°57' E 004°03'0 0.0
2015-Feb-06 13:33N 51°57' E 004°03'0 0.0
2015-Feb-06 12:33N 51°57' E 004°03'0 0.0
2015-Feb-06 11:32N 51°57' E 004°03'0 0.0
2015-Feb-06 10:32N 51°57' E 004°03'0 0.0
2015-Feb-06 09:31N 51°57' E 004°03'0 0.0
2015-Feb-06 08:31N 51°57' E 004°03'0 0.0
2015-Feb-06 07:31N 51°57' E 004°03'0 0.0
2015-Feb-06 06:33N 51°57' E 004°03'0 0.0
2015-Feb-06 05:33N 51°57' E 004°03'0 0.0
2015-Feb-06 04:32N 51°57' E 004°03'0 0.0
2015-Feb-06 03:32N 51°57' E 004°03'0 0.0
2015-Feb-06 02:31N 51°57' E 004°03'0 0.0
2015-Feb-06 01:31N 51°57' E 004°03'0 0.0
2015-Feb-06 00:31N 51°57' E 004°03'0 0.0
2015-Feb-05 23:33N 51°57' E 004°03'0 0.0
2015-Feb-05 22:33N 51°57' E 004°03'0 0.0
2015-Feb-05 21:32N 51°57' E 004°03'0 0.0
2015-Feb-05 20:32N 51°57' E 004°03'0 0.0
2015-Feb-05 19:31N 51°57' E 004°03'0 0.0
2015-Feb-05 18:31N 51°57' E 004°03'0 0.0
2015-Feb-05 17:28N 51°57' E 004°03'0 0.0
2015-Feb-05 16:33N 51°57' E 004°03'0 0.3
2015-Feb-05 15:34N 51°57' E 004°03'1 1.3
2015-Feb-05 14:34N 51°58' E 004°05'9 8.5
2015-Feb-05 13:34N 52°02' E 003°53'8 7.7
2015-Feb-05 12:33N 52°08' E 003°46'1716.7
2015-Feb-05 11:34N 52°25' E 003°49'5819.4
2015-Feb-05 08:34N 53°17' E 004°30'1817.6
2015-Feb-05 07:34N 53°30' E 004°50'1818.2
2015-Feb-05 06:33N 53°38' E 005°18'1919.1
2015-Feb-05 05:33N 53°44' E 005°48'2220.5
2015-Feb-05 04:30N 53°51' E 006°23'2320.9
2015-Feb-05 03:24N 53°56' E 007°01'1820.7
2015-Feb-05 02:33N 53°60' E 007°30'1615.8
2015-Feb-05 01:33N 53°52' E 007°53'1817.6
2015-Feb-05 00:34N 53°43' E 008°18'  
Track history (hours):
 
Tides and Currents Weather Stations Pressure Air Temp Water Temp Dewpoint Dewpoint Depression Visibility Wind Speed Wind Dir Waves Ship Positions

CMA CGM Thalassa

Last reported at 2015-Feb-15 00:33 UTC. Time now 2015-Mar-04 16:53 UTC.
Position N 36°27' E 014°24'.
Warning: this ship's position is 17 days out of date.

Length 347 m; draft 14.9 m.

Type: Cargo ship. MMSI: 212151000.

Date/timePositionNaut miles runAvg speedWind from/ knotsBaromVisibWave heightAir tempDewpointWater temp
2015-Feb-15 00:33N 36°27' E 014°24'2520.2
2015-Feb-14 23:19N 36°34' E 013°54'92120.5
2015-Feb-13 02:25N 36°01' W 005°08'1921.5
2015-Feb-13 01:33N 35°57' W 005°30'25717.9
2015-Feb-12 11:15N 38°17' W 009°60'1521.4
2015-Feb-12 10:33N 38°32' W 010°04'2120.8
2015-Feb-12 09:32N 38°53' W 010°07'74919.2
2015-Feb-10 18:30N 50°03' W 002°19'2021.5
2015-Feb-10 17:33N 49°57' W 001°49'4522.6
2015-Feb-10 15:33N 49°41' W 000°44'2020.0
2015-Feb-10 14:33N 49°33' W 000°15'1514.6
2015-Feb-10 13:34N 49°28' E 000°06'3 2.9
2015-Feb-10 12:33N 49°27' E 000°10'0 0.0
2015-Feb-10 11:33N 49°27' E 000°10'0 0.0
2015-Feb-10 10:32N 49°27' E 000°10'0 0.0
2015-Feb-10 09:32N 49°27' E 000°10'0 0.0
2015-Feb-10 08:31N 49°27' E 000°10'0 0.0
2015-Feb-10 07:31N 49°27' E 000°10'0 0.0
2015-Feb-10 06:33N 49°27' E 000°10'0 0.0
2015-Feb-10 05:33N 49°27' E 000°10'0 0.0
2015-Feb-10 04:33N 49°27' E 000°10'0 0.0
2015-Feb-10 03:32N 49°27' E 000°10'0 0.0
2015-Feb-10 02:31N 49°27' E 000°10'0 0.0
2015-Feb-10 01:33N 49°27' E 000°10'0 0.0
2015-Feb-10 00:33N 49°27' E 000°10'0 0.0
2015-Feb-09 23:33N 49°27' E 000°10'0 0.0
2015-Feb-09 22:32N 49°27' E 000°10'0 0.0
2015-Feb-09 21:32N 49°27' E 000°10'0 0.0
2015-Feb-09 20:31N 49°27' E 000°10'0 0.0
2015-Feb-09 19:31N 49°27' E 000°10'0 0.0
2015-Feb-09 18:33N 49°27' E 000°10'0 0.0
2015-Feb-09 17:33N 49°27' E 000°10'0 0.0
2015-Feb-09 16:32N 49°27' E 000°10'0 0.0
2015-Feb-09 15:32N 49°27' E 000°10'0 0.0
2015-Feb-09 14:33N 49°27' E 000°10'0 0.0
2015-Feb-09 13:33N 49°27' E 000°10'0 0.3
2015-Feb-09 12:33N 49°27' E 000°10'5 4.9
2015-Feb-09 11:33N 49°30' E 000°03'1110.9
2015-Feb-09 10:33N 49°33' W 000°13'1312.6
2015-Feb-09 09:33N 49°41' W 000°28'4814.3
2015-Feb-09 06:11N 50°26' W 000°54'914.2
2015-Feb-09 05:33N 50°35' W 000°57'1010.3
2015-Feb-09 04:34N 50°44' W 001°04'10 9.8
2015-Feb-09 03:34N 50°47' W 001°19'8 7.8
2015-Feb-09 02:33N 50°54' W 001°25'1 0.6
2015-Feb-09 00:28N 50°54' W 001°27'0 0.0
2015-Feb-08 21:27N 50°54' W 001°27'0 0.0
2015-Feb-08 18:16N 50°54' W 001°27'0 0.0
2015-Feb-08 17:31N 50°54' W 001°27'0 0.0
2015-Feb-08 16:33N 50°54' W 001°27'0 0.0
2015-Feb-08 15:30N 50°54' W 001°27'0 0.0
2015-Feb-08 14:30N 50°54' W 001°27'0 0.0
2015-Feb-08 13:11N 50°54' W 001°27'0 0.0
2015-Feb-08 11:28N 50°54' W 001°27'0 0.0
2015-Feb-08 10:10N 50°54' W 001°27'0 0.0
2015-Feb-08 09:30N 50°54' W 001°27'0 0.0
2015-Feb-08 08:33N 50°54' W 001°27'0 0.0
2015-Feb-08 07:33N 50°54' W 001°27'0 0.0
2015-Feb-08 06:32N 50°54' W 001°27'0 0.0
2015-Feb-08 05:32N 50°54' W 001°27'0 0.2
2015-Feb-08 04:33N 50°54' W 001°26'6 5.6
2015-Feb-08 03:33N 50°51' W 001°20'9 9.5
2015-Feb-08 02:33N 50°45' W 001°07'1110.5
2015-Feb-08 01:33N 50°37' W 000°58'1211.6
2015-Feb-08 00:33N 50°30' W 000°43'1515.3
2015-Feb-07 23:34N 50°29' W 000°19'1413.5
2015-Feb-07 22:31N 50°31' E 000°03'1313.2
2015-Feb-07 21:33N 50°34' E 000°22'1313.2
2015-Feb-07 20:33N 50°39' E 000°42'1313.0
2015-Feb-07 19:33N 50°46' E 000°59'1313.4
2015-Feb-07 18:33N 50°54' E 001°17'1313.5
2015-Feb-07 17:33N 51°04' E 001°31'1313.4
2015-Feb-07 16:33N 51°13' E 001°46'1313.1
2015-Feb-07 15:33N 51°25' E 001°57'1212.4
2015-Feb-07 14:33N 51°21' E 002°16'10 9.7
2015-Feb-07 13:33N 51°23' E 002°31'9 9.0
2015-Feb-07 12:33N 51°24' E 002°45'1515.1
2015-Feb-07 11:33N 51°23' E 003°09'3 3.0
2015-Feb-07 10:31N 51°20' E 003°12'0 0.0
2015-Feb-07 09:31N 51°20' E 003°12'0 0.0
2015-Feb-07 08:31N 51°20' E 003°12'0 0.0
2015-Feb-07 07:33N 51°20' E 003°12'0 0.0
2015-Feb-07 06:30N 51°20' E 003°12'0 0.0
2015-Feb-07 05:29N 51°20' E 003°12'0 0.0
2015-Feb-07 04:32N 51°20' E 003°12'0 0.0
2015-Feb-07 03:31N 51°20' E 003°12'0 0.0
2015-Feb-07 02:31N 51°20' E 003°12'0 0.0
2015-Feb-07 01:31N 51°20' E 003°12'0 0.0
2015-Feb-07 00:33N 51°20' E 003°12'0 0.0
2015-Feb-06 23:33N 51°20' E 003°12'1 0.7
2015-Feb-06 22:34N 51°21' E 003°12'9 9.4
2015-Feb-06 21:33N 51°25' E 002°59'1515.4
2015-Feb-06 20:33N 51°38' E 003°10'2618.4
2015-Feb-06 19:09N 52°03' E 003°23'1119.0
2015-Feb-06 18:33N 52°03' E 003°42'1111.2
2015-Feb-06 17:34N 52°00' E 003°59'4 4.5
2015-Feb-06 16:33N 51°57' E 004°04'0 0.4
2015-Feb-06 15:31N 51°57' E 004°03'0 0.0
2015-Feb-06 14:31N 51°57' E 004°03'0 0.0
2015-Feb-06 13:33N 51°57' E 004°03'0 0.0
2015-Feb-06 12:33N 51°57' E 004°03'0 0.0
2015-Feb-06 11:32N 51°57' E 004°03'0 0.0
2015-Feb-06 10:32N 51°57' E 004°03'0 0.0
2015-Feb-06 09:31N 51°57' E 004°03'0 0.0
2015-Feb-06 08:31N 51°57' E 004°03'0 0.0
2015-Feb-06 07:31N 51°57' E 004°03'0 0.0
2015-Feb-06 06:33N 51°57' E 004°03'0 0.0
2015-Feb-06 05:33N 51°57' E 004°03'0 0.0
2015-Feb-06 04:32N 51°57' E 004°03'0 0.0
2015-Feb-06 03:32N 51°57' E 004°03'0 0.0
2015-Feb-06 02:31N 51°57' E 004°03'0 0.0
2015-Feb-06 01:31N 51°57' E 004°03'0 0.0
2015-Feb-06 00:31N 51°57' E 004°03'0 0.0
2015-Feb-05 23:33N 51°57' E 004°03'0 0.0
2015-Feb-05 22:33N 51°57' E 004°03'0 0.0
2015-Feb-05 21:32N 51°57' E 004°03'0 0.0
2015-Feb-05 20:32N 51°57' E 004°03'0 0.0
2015-Feb-05 19:31N 51°57' E 004°03'0 0.0
2015-Feb-05 18:31N 51°57' E 004°03'0 0.0
2015-Feb-05 17:28N 51°57' E 004°03'0 0.0
2015-Feb-05 16:33N 51°57' E 004°03'0 0.3
2015-Feb-05 15:34N 51°57' E 004°03'1 1.3
2015-Feb-05 14:34N 51°58' E 004°05'9 8.5
2015-Feb-05 13:34N 52°02' E 003°53'8 7.7
2015-Feb-05 12:33N 52°08' E 003°46'1716.7
2015-Feb-05 11:34N 52°25' E 003°49'5819.4
2015-Feb-05 08:34N 53°17' E 004°30'1817.6
2015-Feb-05 07:34N 53°30' E 004°50'1818.2
2015-Feb-05 06:33N 53°38' E 005°18'1919.1
2015-Feb-05 05:33N 53°44' E 005°48'2220.5
2015-Feb-05 04:30N 53°51' E 006°23'2320.9
2015-Feb-05 03:24N 53°56' E 007°01'1820.7
2015-Feb-05 02:33N 53°60' E 007°30'1615.8
2015-Feb-05 01:33N 53°52' E 007°53'1817.6
2015-Feb-05 00:34N 53°43' E 008°18'  

Dump ship's entire track history